sensor_id;sensor_type;location;lat;lon;timestamp;pressure;altitude;pressure_sealevel;temperature;humidity
60427;BME280;46274;47.168;27.604;2023-06-14T00:03:39;99722.50;;;14.01;82.58
60427;BME280;46274;47.168;27.604;2023-06-14T00:09:51;99813.56;;;14.59;83.41
60427;BME280;46274;47.168;27.604;2023-06-14T00:16:01;99548.06;;;12.94;82.91
60427;BME280;46274;47.168;27.604;2023-06-14T00:22:06;99806.03;;;14.61;83.00
60427;BME280;46274;47.168;27.604;2023-06-14T00:28:09;99803.72;;;14.65;83.07
60427;BME280;46274;47.168;27.604;2023-06-14T00:34:12;99785.69;;;14.64;82.21
60427;BME280;46274;47.168;27.604;2023-06-14T00:40:15;99781.03;;;14.51;83.17
60427;BME280;46274;47.168;27.604;2023-06-14T00:46:22;99786.72;;;14.63;82.89
60427;BME280;46274;47.168;27.604;2023-06-14T00:52:28;99697.56;;;14.04;83.20
60427;BME280;46274;47.168;27.604;2023-06-14T00:58:36;99781.50;;;14.61;83.01
60427;BME280;46274;47.168;27.604;2023-06-14T01:04:52;99757.53;;;14.50;83.08
60427;BME280;46274;47.168;27.604;2023-06-14T01:11:16;99767.63;;;14.63;82.65
60427;BME280;46274;47.168;27.604;2023-06-14T01:17:22;99729.88;;;14.27;82.43
60427;BME280;46274;47.168;27.604;2023-06-14T01:23:35;99734.28;;;14.28;82.69
60427;BME280;46274;47.168;27.604;2023-06-14T01:29:39;99709.94;;;14.06;83.04
60427;BME280;46274;47.168;27.604;2023-06-14T01:35:59;99775.16;;;14.48;82.50
60427;BME280;46274;47.168;27.604;2023-06-14T01:42:06;99768.25;;;14.38;83.45
60427;BME280;46274;47.168;27.604;2023-06-14T01:55:01;99768.88;;;14.40;83.24
60427;BME280;46274;47.168;27.604;2023-06-14T02:01:11;99653.56;;;13.80;83.02
60427;BME280;46274;47.168;27.604;2023-06-14T02:07:23;99757.50;;;14.17;84.49
60427;BME280;46274;47.168;27.604;2023-06-14T02:13:54;99760.69;;;14.47;82.62
60427;BME280;46274;47.168;27.604;2023-06-14T02:20:04;99707.66;;;13.96;84.22
60427;BME280;46274;47.168;27.604;2023-06-14T02:26:10;99765.13;;;14.55;81.93
60427;BME280;46274;47.168;27.604;2023-06-14T02:32:18;99765.81;;;13.69;88.01
60427;BME280;46274;47.168;27.604;2023-06-14T02:38:23;99767.16;;;14.00;86.53
60427;BME280;46274;47.168;27.604;2023-06-14T02:44:30;99721.66;;;14.07;83.58
60427;BME280;46274;47.168;27.604;2023-06-14T02:50:34;99772.41;;;14.21;84.15
60427;BME280;46274;47.168;27.604;2023-06-14T02:56:48;99626.00;;;13.22;84.45
60427;BME280;46274;47.168;27.604;2023-06-14T03:02:51;99787.31;;;14.45;83.39
60427;BME280;46274;47.168;27.604;2023-06-14T03:08:57;99662.31;;;13.62;84.20
60427;BME280;46274;47.168;27.604;2023-06-14T03:15:08;99702.81;;;13.99;83.54
60427;BME280;46274;47.168;27.604;2023-06-14T03:21:19;99793.41;;;14.40;85.67
60427;BME280;46274;47.168;27.604;2023-06-14T03:27:26;99717.50;;;14.24;83.16
60427;BME280;46274;47.168;27.604;2023-06-14T03:33:32;99792.59;;;14.73;83.73
60427;BME280;46274;47.168;27.604;2023-06-14T03:39:37;99537.03;;;13.09;84.22
60427;BME280;46274;47.168;27.604;2023-06-14T03:45:40;99780.00;;;14.86;84.04
60427;BME280;46274;47.168;27.604;2023-06-14T03:51:48;99801.94;;;15.37;83.13
60427;BME280;46274;47.168;27.604;2023-06-14T03:57:55;99792.88;;;15.50;82.92
60427;BME280;46274;47.168;27.604;2023-06-14T04:04:00;99711.91;;;15.76;81.17
60427;BME280;46274;47.168;27.604;2023-06-14T04:10:06;99810.22;;;16.52;79.64
60427;BME280;46274;47.168;27.604;2023-06-14T04:16:10;99755.03;;;16.30;79.37
60427;BME280;46274;47.168;27.604;2023-06-14T04:22:26;99798.91;;;16.99;77.71
60427;BME280;46274;47.168;27.604;2023-06-14T04:28:32;99550.75;;;15.76;77.33
60427;BME280;46274;47.168;27.604;2023-06-14T04:34:47;99547.06;;;16.13;76.22
60427;BME280;46274;47.168;27.604;2023-06-14T04:41:10;99804.94;;;17.26;76.51
60427;BME280;46274;47.168;27.604;2023-06-14T04:47:27;99794.13;;;18.05;74.78
60427;BME280;46274;47.168;27.604;2023-06-14T04:53:34;99801.53;;;18.58;74.17
60427;BME280;46274;47.168;27.604;2023-06-14T05:00:12;99659.16;;;17.61;70.00
60427;BME280;46274;47.168;27.604;2023-06-14T05:06:25;99596.34;;;17.90;70.61
60427;BME280;46274;47.168;27.604;2023-06-14T05:12:41;99718.06;;;18.78;69.84
60427;BME280;46274;47.168;27.604;2023-06-14T05:18:55;99792.41;;;19.47;68.16
60427;BME280;46274;47.168;27.604;2023-06-14T05:24:58;99568.81;;;17.84;69.75
60427;BME280;46274;47.168;27.604;2023-06-14T05:31:10;99607.81;;;18.34;69.02
60427;BME280;46274;47.168;27.604;2023-06-14T05:37:22;99697.00;;;19.18;68.03
60427;BME280;46274;47.168;27.604;2023-06-14T05:43:39;99749.28;;;20.33;66.26
60427;BME280;46274;47.168;27.604;2023-06-14T05:49:45;99819.69;;;18.71;66.77
60427;BME280;46274;47.168;27.604;2023-06-14T05:55:47;99545.13;;;18.25;66.14
60427;BME280;46274;47.168;27.604;2023-06-14T06:02:05;99681.03;;;18.92;65.91
60427;BME280;46274;47.168;27.604;2023-06-14T06:08:21;99735.91;;;19.39;64.74
60427;BME280;46274;47.168;27.604;2023-06-14T06:14:32;99749.56;;;19.10;64.15
60427;BME280;46274;47.168;27.604;2023-06-14T06:20:38;99603.16;;;18.34;62.10
60427;BME280;46274;47.168;27.604;2023-06-14T06:26:44;99826.69;;;19.21;63.93
60427;BME280;46274;47.168;27.604;2023-06-14T06:32:47;99654.56;;;20.29;63.77
60427;BME280;46274;47.168;27.604;2023-06-14T06:38:49;99697.69;;;18.08;63.28
60427;BME280;46274;47.168;27.604;2023-06-14T06:45:03;99773.78;;;19.37;64.47
60427;BME280;46274;47.168;27.604;2023-06-14T06:51:19;99652.56;;;19.62;62.98
60427;BME280;46274;47.168;27.604;2023-06-14T06:57:25;99822.56;;;20.39;64.15
60427;BME280;46274;47.168;27.604;2023-06-14T07:03:32;99725.38;;;19.36;61.42
60427;BME280;46274;47.168;27.604;2023-06-14T07:09:39;99667.59;;;19.71;61.87
60427;BME280;46274;47.168;27.604;2023-06-14T07:15:54;99622.34;;;18.93;60.87
60427;BME280;46274;47.168;27.604;2023-06-14T07:22:04;99739.00;;;21.13;64.06
60427;BME280;46274;47.168;27.604;2023-06-14T07:28:09;99828.47;;;20.60;59.99
60427;BME280;46274;47.168;27.604;2023-06-14T07:34:34;99819.94;;;21.46;60.63
60427;BME280;46274;47.168;27.604;2023-06-14T07:40:43;99827.97;;;21.30;59.97
60427;BME280;46274;47.168;27.604;2023-06-14T07:47:06;99595.28;;;20.38;56.67
60427;BME280;46274;47.168;27.604;2023-06-14T07:53:12;99771.84;;;20.18;58.96
60427;BME280;46274;47.168;27.604;2023-06-14T07:59:15;99836.88;;;20.24;60.41
60427;BME280;46274;47.168;27.604;2023-06-14T08:05:20;99845.44;;;20.40;58.86
60427;BME280;46274;47.168;27.604;2023-06-14T08:11:29;99742.34;;;20.98;57.07
60427;BME280;46274;47.168;27.604;2023-06-14T08:17:36;99622.88;;;20.60;57.32
60427;BME280;46274;47.168;27.604;2023-06-14T08:23:39;99830.53;;;21.98;57.46
60427;BME280;46274;47.168;27.604;2023-06-14T08:29:49;99767.13;;;21.37;59.90
60427;BME280;46274;47.168;27.604;2023-06-14T08:35:55;99841.47;;;22.15;57.40
60427;BME280;46274;47.168;27.604;2023-06-14T08:42:17;99842.06;;;21.73;60.54
60427;BME280;46274;47.168;27.604;2023-06-14T08:48:39;99767.84;;;21.27;59.10
60427;BME280;46274;47.168;27.604;2023-06-14T08:54:48;99846.09;;;21.65;57.81
60427;BME280;46274;47.168;27.604;2023-06-14T09:00:52;99792.63;;;21.44;57.53
60427;BME280;46274;47.168;27.604;2023-06-14T09:06:59;99837.53;;;21.84;56.85
60427;BME280;46274;47.168;27.604;2023-06-14T09:13:17;99822.97;;;20.31;59.05
60427;BME280;46274;47.168;27.604;2023-06-14T09:19:31;99798.03;;;20.66;58.57
60427;BME280;46274;47.168;27.604;2023-06-14T09:25:50;99827.13;;;21.30;59.00
60427;BME280;46274;47.168;27.604;2023-06-14T09:31:52;99757.19;;;21.75;57.12
60427;BME280;46274;47.168;27.604;2023-06-14T09:37:59;99799.25;;;22.14;57.39
60427;BME280;46274;47.168;27.604;2023-06-14T09:44:07;99794.91;;;22.18;55.95
60427;BME280;46274;47.168;27.604;2023-06-14T09:50:26;99822.16;;;22.96;58.03
60427;BME280;46274;47.168;27.604;2023-06-14T09:56:29;99778.09;;;22.47;58.38
60427;BME280;46274;47.168;27.604;2023-06-14T10:02:35;99690.16;;;22.02;56.65
60427;BME280;46274;47.168;27.604;2023-06-14T10:08:41;99825.56;;;22.44;56.67
60427;BME280;46274;47.168;27.604;2023-06-14T10:14:51;99824.69;;;22.71;55.90
60427;BME280;46274;47.168;27.604;2023-06-14T10:28:16;99819.84;;;21.80;56.21
60427;BME280;46274;47.168;27.604;2023-06-14T10:34:31;99699.69;;;20.62;55.04
60427;BME280;46274;47.168;27.604;2023-06-14T10:40:36;99648.72;;;21.42;56.28
60427;BME280;46274;47.168;27.604;2023-06-14T10:53:40;99716.53;;;22.47;56.50
60427;BME280;46274;47.168;27.604;2023-06-14T10:59:42;99731.66;;;22.76;56.13
60427;BME280;46274;47.168;27.604;2023-06-14T11:12:34;99667.25;;;22.65;54.03
60427;BME280;46274;47.168;27.604;2023-06-14T11:18:40;99571.41;;;22.66;52.35
60427;BME280;46274;47.168;27.604;2023-06-14T11:24:43;99650.75;;;23.34;54.15
60427;BME280;46274;47.168;27.604;2023-06-14T11:31:07;99751.09;;;23.92;52.12
60427;BME280;46274;47.168;27.604;2023-06-14T11:37:11;99652.09;;;23.16;52.39
60427;BME280;46274;47.168;27.604;2023-06-14T11:43:20;99578.81;;;21.26;53.48
60427;BME280;46274;47.168;27.604;2023-06-14T11:49:37;99718.84;;;22.97;51.88
60427;BME280;46274;47.168;27.604;2023-06-14T11:55:47;99781.13;;;23.63;52.20
60427;BME280;46274;47.168;27.604;2023-06-14T12:01:57;99708.25;;;23.32;51.57
60427;BME280;46274;47.168;27.604;2023-06-14T12:08:02;99766.09;;;23.43;52.16
60427;BME280;46274;47.168;27.604;2023-06-14T12:14:08;99766.66;;;24.39;51.65
60427;BME280;46274;47.168;27.604;2023-06-14T12:20:15;99701.41;;;23.44;51.69
60427;BME280;46274;47.168;27.604;2023-06-14T12:26:28;99658.81;;;22.88;52.28
60427;BME280;46274;47.168;27.604;2023-06-14T12:32:37;99651.41;;;23.71;51.96
60427;BME280;46274;47.168;27.604;2023-06-14T12:38:59;99762.88;;;23.14;50.34
60427;BME280;46274;47.168;27.604;2023-06-14T12:45:07;99749.72;;;24.00;51.90
60427;BME280;46274;47.168;27.604;2023-06-14T12:51:11;99621.28;;;23.65;52.32
60427;BME280;46274;47.168;27.604;2023-06-14T12:57:17;99660.50;;;23.62;52.56
60427;BME280;46274;47.168;27.604;2023-06-14T13:03:34;99736.66;;;23.17;51.68
60427;BME280;46274;47.168;27.604;2023-06-14T13:09:43;99723.69;;;23.80;50.78
60427;BME280;46274;47.168;27.604;2023-06-14T13:15:57;99732.31;;;23.36;53.19
60427;BME280;46274;47.168;27.604;2023-06-14T13:22:19;99718.81;;;23.40;52.17
60427;BME280;46274;47.168;27.604;2023-06-14T13:28:27;99729.00;;;23.29;50.60
60427;BME280;46274;47.168;27.604;2023-06-14T13:34:31;99702.66;;;22.79;51.80
60427;BME280;46274;47.168;27.604;2023-06-14T13:40:33;99637.38;;;23.93;51.36
60427;BME280;46274;47.168;27.604;2023-06-14T13:46:35;99718.41;;;23.73;50.69
60427;BME280;46274;47.168;27.604;2023-06-14T13:52:38;99708.28;;;23.37;51.98
60427;BME280;46274;47.168;27.604;2023-06-14T13:58:57;99708.53;;;23.30;53.00
60427;BME280;46274;47.168;27.604;2023-06-14T14:05:13;99711.34;;;23.40;52.09
60427;BME280;46274;47.168;27.604;2023-06-14T14:11:19;99664.91;;;23.42;51.13
60427;BME280;46274;47.168;27.604;2023-06-14T14:17:25;99707.72;;;22.92;51.98
60427;BME280;46274;47.168;27.604;2023-06-14T14:23:34;99581.84;;;22.49;51.39
60427;BME280;46274;47.168;27.604;2023-06-14T14:29:40;99630.63;;;23.48;52.20
60427;BME280;46274;47.168;27.604;2023-06-14T14:35:53;99639.78;;;23.64;52.53
60427;BME280;46274;47.168;27.604;2023-06-14T14:41:56;99614.69;;;22.50;52.68
60427;BME280;46274;47.168;27.604;2023-06-14T14:48:05;99585.97;;;22.46;52.67
60427;BME280;46274;47.168;27.604;2023-06-14T14:54:13;99574.22;;;22.76;52.00
60427;BME280;46274;47.168;27.604;2023-06-14T15:00:20;99628.53;;;22.55;52.47
60427;BME280;46274;47.168;27.604;2023-06-14T15:06:23;99609.41;;;22.43;53.05
60427;BME280;46274;47.168;27.604;2023-06-14T15:12:31;99476.56;;;21.87;53.33
60427;BME280;46274;47.168;27.604;2023-06-14T15:18:52;99704.06;;;23.19;54.31
60427;BME280;46274;47.168;27.604;2023-06-14T15:25:13;99705.53;;;22.94;54.42
60427;BME280;46274;47.168;27.604;2023-06-14T15:31:20;99698.59;;;23.34;54.30
60427;BME280;46274;47.168;27.604;2023-06-14T15:37:31;99704.22;;;23.55;53.41
60427;BME280;46274;47.168;27.604;2023-06-14T15:43:33;99624.81;;;22.39;54.81
60427;BME280;46274;47.168;27.604;2023-06-14T15:49:47;99702.28;;;22.60;54.85
60427;BME280;46274;47.168;27.604;2023-06-14T15:55:54;99513.38;;;21.71;54.58
60427;BME280;46274;47.168;27.604;2023-06-14T16:02:06;99704.63;;;22.78;54.70
60427;BME280;46274;47.168;27.604;2023-06-14T16:08:22;99516.31;;;21.59;54.77
60427;BME280;46274;47.168;27.604;2023-06-14T16:14:51;99634.41;;;22.27;55.04
60427;BME280;46274;47.168;27.604;2023-06-14T16:21:18;99722.97;;;22.25;54.66
60427;BME280;46274;47.168;27.604;2023-06-14T16:27:28;99641.88;;;21.72;55.60
60427;BME280;46274;47.168;27.604;2023-06-14T16:33:40;99518.31;;;20.87;55.73
60427;BME280;46274;47.168;27.604;2023-06-14T16:39:54;99655.72;;;22.09;54.71
60427;BME280;46274;47.168;27.604;2023-06-14T16:45:58;99740.97;;;22.33;55.54
60427;BME280;46274;47.168;27.604;2023-06-14T16:52:13;99553.31;;;21.14;56.20
60427;BME280;46274;47.168;27.604;2023-06-14T16:58:32;99729.84;;;22.55;55.89
60427;BME280;46274;47.168;27.604;2023-06-14T17:04:39;99751.03;;;22.44;55.87
60427;BME280;46274;47.168;27.604;2023-06-14T17:10:43;99725.34;;;22.16;56.80
60427;BME280;46274;47.168;27.604;2023-06-14T17:16:57;99770.28;;;22.71;58.41
60427;BME280;46274;47.168;27.604;2023-06-14T17:23:06;99753.78;;;22.44;59.69
60427;BME280;46274;47.168;27.604;2023-06-14T17:29:19;99754.41;;;22.51;60.29
60427;BME280;46274;47.168;27.604;2023-06-14T17:35:34;99721.78;;;20.67;67.16
60427;BME280;46274;47.168;27.604;2023-06-14T17:41:43;99766.38;;;21.03;65.87
60427;BME280;46274;47.168;27.604;2023-06-14T17:47:55;99759.78;;;21.04;65.98
60427;BME280;46274;47.168;27.604;2023-06-14T17:54:05;99767.13;;;20.47;68.55
60427;BME280;46274;47.168;27.604;2023-06-14T18:00:10;99764.22;;;20.37;68.04
60427;BME280;46274;47.168;27.604;2023-06-14T18:06:13;99592.63;;;18.90;67.88
60427;BME280;46274;47.168;27.604;2023-06-14T18:12:17;99774.50;;;21.31;64.74
60427;BME280;46274;47.168;27.604;2023-06-14T18:18:29;99774.75;;;21.47;66.70
60427;BME280;46274;47.168;27.604;2023-06-14T18:24:31;99736.72;;;19.39;71.70
60427;BME280;46274;47.168;27.604;2023-06-14T18:30:36;99742.81;;;20.11;68.57
60427;BME280;46274;47.168;27.604;2023-06-14T18:36:40;99755.78;;;19.06;71.25
60427;BME280;46274;47.168;27.604;2023-06-14T18:42:49;99801.69;;;19.57;70.92
60427;BME280;46274;47.168;27.604;2023-06-14T18:49:01;99801.78;;;20.60;67.28
60427;BME280;46274;47.168;27.604;2023-06-14T18:55:15;99721.56;;;19.37;71.78
60427;BME280;46274;47.168;27.604;2023-06-14T19:01:19;99827.28;;;19.11;73.79
60427;BME280;46274;47.168;27.604;2023-06-14T19:07:21;99747.94;;;19.90;68.54
60427;BME280;46274;47.168;27.604;2023-06-14T19:13:42;99810.53;;;20.00;70.33
60427;BME280;46274;47.168;27.604;2023-06-14T19:19:59;99798.63;;;19.94;70.28
60427;BME280;46274;47.168;27.604;2023-06-14T19:26:13;99753.94;;;19.87;68.71
60427;BME280;46274;47.168;27.604;2023-06-14T19:32:27;99578.94;;;18.78;68.28
60427;BME280;46274;47.168;27.604;2023-06-14T19:38:49;99677.72;;;18.90;70.66
60427;BME280;46274;47.168;27.604;2023-06-14T19:44:52;99835.38;;;19.65;72.31
60427;BME280;46274;47.168;27.604;2023-06-14T19:50:55;99841.50;;;19.95;70.54
60427;BME280;46274;47.168;27.604;2023-06-14T19:57:01;99808.25;;;19.56;72.12
60427;BME280;46274;47.168;27.604;2023-06-14T20:03:17;99666.25;;;18.93;69.81
60427;BME280;46274;47.168;27.604;2023-06-14T20:09:22;99637.50;;;17.41;77.09
60427;BME280;46274;47.168;27.604;2023-06-14T20:15:44;99796.25;;;18.33;77.59
60427;BME280;46274;47.168;27.604;2023-06-14T20:21:50;99827.13;;;19.41;72.54
60427;BME280;46274;47.168;27.604;2023-06-14T20:27:58;99841.59;;;19.48;72.38
60427;BME280;46274;47.168;27.604;2023-06-14T20:34:01;99628.06;;;18.09;72.98
60427;BME280;46274;47.168;27.604;2023-06-14T20:40:08;99690.84;;;18.64;72.37
60427;BME280;46274;47.168;27.604;2023-06-14T20:46:30;99767.22;;;17.28;83.28
60427;BME280;46274;47.168;27.604;2023-06-14T20:52:37;99847.13;;;18.59;78.81
60427;BME280;46274;47.168;27.604;2023-06-14T20:58:46;99798.88;;;18.40;79.99
60427;BME280;46274;47.168;27.604;2023-06-14T21:05:13;99845.75;;;17.71;85.57
60427;BME280;46274;47.168;27.604;2023-06-14T21:11:17;99847.75;;;18.73;78.82
60427;BME280;46274;47.168;27.604;2023-06-14T21:17:32;99848.75;;;19.02;76.76
60427;BME280;46274;47.168;27.604;2023-06-14T21:23:40;99700.13;;;18.40;75.07
60427;BME280;46274;47.168;27.604;2023-06-14T21:29:54;99629.53;;;17.39;78.29
60427;BME280;46274;47.168;27.604;2023-06-14T21:36:00;99772.06;;;18.65;75.36
60427;BME280;46274;47.168;27.604;2023-06-14T21:42:27;99850.81;;;18.95;76.08
60427;BME280;46274;47.168;27.604;2023-06-14T21:48:32;99688.16;;;18.22;74.46
60427;BME280;46274;47.168;27.604;2023-06-14T21:54:44;99848.56;;;19.15;75.20
60427;BME280;46274;47.168;27.604;2023-06-14T22:00:47;99848.91;;;18.53;78.45
60427;BME280;46274;47.168;27.604;2023-06-14T22:06:52;99841.72;;;18.22;79.72
60427;BME280;46274;47.168;27.604;2023-06-14T22:12:56;99840.34;;;18.73;77.23
60427;BME280;46274;47.168;27.604;2023-06-14T22:19:04;99780.53;;;17.43;82.15
60427;BME280;46274;47.168;27.604;2023-06-14T22:25:11;99772.50;;;16.86;85.28
60427;BME280;46274;47.168;27.604;2023-06-14T22:31:23;99823.06;;;18.43;77.84
60427;BME280;46274;47.168;27.604;2023-06-14T22:37:45;99839.22;;;18.51;78.17
60427;BME280;46274;47.168;27.604;2023-06-14T22:43:59;99805.09;;;18.47;77.40
60427;BME280;46274;47.168;27.604;2023-06-14T22:50:03;99764.81;;;18.17;76.91
60427;BME280;46274;47.168;27.604;2023-06-14T22:56:19;99732.81;;;17.69;78.46
60427;BME280;46274;47.168;27.604;2023-06-14T23:02:23;99816.75;;;16.83;87.11
60427;BME280;46274;47.168;27.604;2023-06-14T23:08:27;99776.50;;;17.27;82.80
60427;BME280;46274;47.168;27.604;2023-06-14T23:14:29;99725.75;;;17.43;79.23
60427;BME280;46274;47.168;27.604;2023-06-14T23:20:41;99827.56;;;18.25;77.00
60427;BME280;46274;47.168;27.604;2023-06-14T23:26:47;99750.13;;;17.63;76.73
60427;BME280;46274;47.168;27.604;2023-06-14T23:32:55;99789.56;;;17.80;76.81
60427;BME280;46274;47.168;27.604;2023-06-14T23:39:00;99719.22;;;17.07;77.39
60427;BME280;46274;47.168;27.604;2023-06-14T23:45:09;99832.78;;;16.09;86.09
60427;BME280;46274;47.168;27.604;2023-06-14T23:51:19;99790.00;;;16.53;83.50
